Time;durP1;ratioP1;P1;durP2;ratioP2;P2;SDS_P1;SDS_P2;PMS_P1;PMS_P2;Temp;Humidity;BMP_temperature;BMP_pressure;BME280_temperature;BME280_humidity;BME280_pressure;Samples;Min_cycle;Max_cycle;Signal;HPM_P1;HPM_P2
2022/11/15 00:01:52;;;;;;;56.30;34.43;;;;;;;;;;5014538;28;20441;-76
2022/11/15 00:04:18;;;;;;;51.67;34.85;;;;;;;;;;4992018;28;20419;-76
2022/11/15 00:06:44;;;;;;;54.92;35.03;;;;;;;;;;5028716;28;20508;-76
2022/11/15 00:09:10;;;;;;;58.20;35.10;;;;;;;;;;5003357;28;20507;-76
2022/11/15 00:11:36;;;;;;;56.63;35.30;;;;;;;;;;5021747;28;20429;-79
2022/11/15 00:14:02;;;;;;;55.63;35.70;;;;;;;;;;5024811;28;20424;-79
2022/11/15 00:16:28;;;;;;;58.30;35.97;;;;;;;;;;5015016;28;20457;-79
2022/11/15 00:18:54;;;;;;;55.33;34.90;;;;;;;;;;5015245;28;20468;-79
2022/11/15 00:21:20;;;;;;;56.40;35.47;;;;;;;;;;5032120;28;20759;-79
2022/11/15 00:23:46;;;;;;;54.33;35.22;;;;;;;;;;5032582;28;20433;-79
2022/11/15 00:26:13;;;;;;;58.97;35.63;;;;;;;;;;5015022;28;20413;-79
2022/11/15 00:28:39;;;;;;;56.17;36.20;;;;;;;;;;5043687;28;20571;-79
2022/11/15 00:31:06;;;;;;;57.67;36.85;;;;;;;;;;5014310;28;20409;-79
2022/11/15 00:33:33;;;;;;;64.40;37.08;;;;;;;;;;5014775;28;20413;-79
2022/11/15 00:36:06;;;;;;;61.40;37.08;;;;;;;;;;5031287;28;20431;-79
2022/11/15 00:38:33;;;;;;;64.00;37.95;;;;;;;;;;5014547;28;20434;-79
2022/11/15 00:41:00;;;;;;;68.10;37.47;;;;;;;;;;5015333;28;20424;-79
2022/11/15 00:43:26;;;;;;;55.13;35.22;;;;;;;;;;5029485;28;20494;-79
2022/11/15 00:45:52;;;;;;;60.50;36.47;;;;;;;;;;4997407;28;20432;-79
2022/11/15 00:48:18;;;;;;;62.80;37.70;;;;;;;;;;5015378;28;20483;-79
2022/11/15 00:50:44;;;;;;;60.65;36.92;;;;;;;;;;4998424;28;20425;-79
2022/11/15 00:53:11;;;;;;;59.35;36.75;;;;;;;;;;5042800;28;20481;-79
2022/11/15 00:55:37;;;;;;;63.80;37.97;;;;;;;;;;5004045;28;20425;-79
2022/11/15 00:58:03;;;;;;;62.15;37.88;;;;;;;;;;4998370;28;20443;-79
2022/11/15 01:00:29;;;;;;;67.25;39.53;;;;;;;;;;4988318;28;20423;-79
2022/11/15 01:02:55;;;;;;;69.82;40.63;;;;;;;;;;5026349;28;20425;-86
2022/11/15 01:05:22;;;;;;;72.00;40.90;;;;;;;;;;5014136;28;20435;-87
2022/11/15 01:07:51;;;;;;;73.90;42.40;;;;;;;;;;5014379;28;20493;-86
2022/11/15 01:10:17;;;;;;;74.88;43.50;;;;;;;;;;5032836;28;20508;-86
2022/11/15 01:12:43;;;;;;;71.82;42.95;;;;;;;;;;5015046;28;20402;-87
2022/11/15 01:15:09;;;;;;;79.20;44.67;;;;;;;;;;5015420;28;20417;-87
2022/11/15 01:17:35;;;;;;;78.85;45.45;;;;;;;;;;5032753;28;20412;-87
2022/11/15 01:20:01;;;;;;;77.15;46.03;;;;;;;;;;5013978;28;20441;-78
2022/11/15 01:22:27;;;;;;;77.07;45.53;;;;;;;;;;5032520;28;20416;-78
2022/11/15 01:24:53;;;;;;;71.97;44.87;;;;;;;;;;5011474;28;20510;-78
2022/11/15 01:27:19;;;;;;;78.03;45.65;;;;;;;;;;5022722;28;20418;-78
2022/11/15 01:29:45;;;;;;;79.00;46.58;;;;;;;;;;5048433;28;20425;-78
2022/11/15 01:32:11;;;;;;;83.65;47.33;;;;;;;;;;5015811;28;20482;-78
2022/11/15 01:34:37;;;;;;;80.95;47.75;;;;;;;;;;5032475;28;20449;-79
2022/11/15 01:37:03;;;;;;;81.57;47.83;;;;;;;;;;5021024;28;20416;-79
2022/11/15 01:39:29;;;;;;;77.50;44.90;;;;;;;;;;5031926;28;20436;-79
2022/11/15 01:41:55;;;;;;;86.05;48.20;;;;;;;;;;5022530;28;20420;-79
2022/11/15 01:44:34;;;;;;;84.70;47.65;;;;;;;;;;5033389;28;20431;-79
2022/11/15 01:47:00;;;;;;;70.35;41.05;;;;;;;;;;5040967;28;20436;-79
2022/11/15 01:49:27;;;;;;;76.55;46.47;;;;;;;;;;5017606;28;20501;-79
2022/11/15 01:51:54;;;;;;;79.55;47.45;;;;;;;;;;5038072;28;20440;-78
2022/11/15 01:54:21;;;;;;;74.38;45.58;;;;;;;;;;5036022;28;20445;-78
2022/11/15 01:56:52;;;;;;;72.68;45.83;;;;;;;;;;5035742;28;20453;-78
2022/11/15 01:59:18;;;;;;;73.00;44.58;;;;;;;;;;5017542;28;20495;-78
2022/11/15 02:01:44;;;;;;;69.20;42.27;;;;;;;;;;5018984;28;20420;-79
2022/11/15 02:04:13;;;;;;;65.40;42.10;;;;;;;;;;5055652;28;20452;-79
2022/11/15 02:06:40;;;;;;;60.75;40.92;;;;;;;;;;5054285;28;20422;-79
2022/11/15 02:09:06;;;;;;;62.75;40.63;;;;;;;;;;5047654;28;20515;-79
2022/11/15 02:11:32;;;;;;;56.75;37.85;;;;;;;;;;5029819;28;20420;-79
2022/11/15 02:14:00;;;;;;;57.05;38.42;;;;;;;;;;5018393;28;20418;-86
2022/11/15 02:16:26;;;;;;;57.30;39.23;;;;;;;;;;5018184;28;20487;-85
2022/11/15 02:19:10;;;;;;;57.42;38.65;;;;;;;;;;5027667;28;20493;-86
2022/11/15 02:21:47;;;;;;;50.05;36.88;;;;;;;;;;5018477;28;20410;-86
2022/11/15 02:24:28;;;;;;;52.17;36.97;;;;;;;;;;5017677;28;20456;-87
2022/11/15 02:27:14;;;;;;;49.60;36.38;;;;;;;;;;5025409;28;20419;-79
2022/11/15 02:29:59;;;;;;;46.57;35.27;;;;;;;;;;5017019;28;20509;-87
2022/11/15 02:32:44;;;;;;;50.05;34.95;;;;;;;;;;5064680;28;20434;-87
2022/11/15 02:35:32;;;;;;;44.45;34.58;;;;;;;;;;5034423;28;20441;-78
2022/11/15 02:38:07;;;;;;;42.22;33.25;;;;;;;;;;5033718;28;20433;-79
2022/11/15 02:40:45;;;;;;;42.58;32.72;;;;;;;;;;5016776;28;20449;-78
2022/11/15 02:46:20;;;;;;;47.65;34.38;;;;;;;;;;5052240;28;20490;-79
2022/11/15 02:48:46;;;;;;;40.53;32.55;;;;;;;;;;5047416;28;20445;-78
2022/11/15 02:51:13;;;;;;;40.50;32.47;;;;;;;;;;5054498;28;20430;-78
2022/11/15 02:53:39;;;;;;;38.67;32.10;;;;;;;;;;5050801;28;20507;-79
2022/11/15 02:56:05;;;;;;;40.33;33.05;;;;;;;;;;5035853;28;20499;-78
2022/11/15 02:58:34;;;;;;;44.15;32.90;;;;;;;;;;5036753;28;20428;-77
2022/11/15 03:01:09;;;;;;;38.67;32.07;;;;;;;;;;5054357;28;20455;-76
2022/11/15 03:03:41;;;;;;;36.47;26.30;;;;;;;;;;5035177;28;20179;-76
2022/11/15 03:06:15;;;;;;;35.70;26.37;;;;;;;;;;5020490;28;20227;-76
2022/11/15 03:08:41;;;;;;;36.33;25.90;;;;;;;;;;5037268;28;20245;-76
2022/11/15 03:11:11;;;;;;;34.17;25.10;;;;;;;;;;5036873;28;20184;-76
2022/11/15 03:13:41;;;;;;;34.23;25.57;;;;;;;;;;5036569;28;20196;-76
2022/11/15 03:16:10;;;;;;;36.37;25.27;;;;;;;;;;5028234;28;20216;-79
2022/11/15 03:18:37;;;;;;;34.20;25.57;;;;;;;;;;5052243;28;20207;-79
2022/11/15 03:21:06;;;;;;;32.90;25.50;;;;;;;;;;5036346;28;20241;-78
2022/11/15 03:23:33;;;;;;;32.17;24.90;;;;;;;;;;5027967;28;20245;-79
2022/11/15 03:26:00;;;;;;;36.47;31.35;;;;;;;;;;5048141;28;20424;-78
2022/11/15 03:28:38;;;;;;;35.33;27.37;;;;;;;;;;5053573;28;20171;-79
2022/11/15 03:31:46;;;;;;;31.53;25.63;;;;;;;;;;5021672;28;20188;-76
2022/11/15 03:33:53;;;;;;;33.73;26.03;;;;;;;;;;5053880;28;20195;-86
2022/11/15 03:36:20;;;;;;;36.73;26.07;;;;;;;;;;5054377;28;20195;-87
2022/11/15 03:38:46;;;;;;;34.87;26.13;;;;;;;;;;5036612;28;20243;-79
2022/11/15 03:41:24;;;;;;;31.87;24.97;;;;;;;;;;5004184;28;20368;-79
2022/11/15 03:43:50;;;;;;;40.45;31.98;;;;;;;;;;5035612;28;20467;-78
2022/11/15 03:46:37;;;;;;;36.03;27.23;;;;;;;;;;5036318;28;20195;-79
2022/11/15 03:49:09;;;;;;;32.00;25.63;;;;;;;;;;5036304;28;20202;-79
2022/11/15 03:51:35;;;;;;;39.63;26.10;;;;;;;;;;5033599;28;20168;-86
2022/11/15 03:54:03;;;;;;;37.63;27.30;;;;;;;;;;5043388;28;20246;-87
2022/11/15 03:56:29;;;;;;;37.53;26.87;;;;;;;;;;5014558;23;20232;-79
2022/11/15 03:58:55;;;;;;;40.93;28.60;;;;;;;;;;5029793;28;20217;-79
2022/11/15 04:01:21;;;;;;;37.77;28.23;;;;;;;;;;4982857;28;20191;-79
2022/11/15 04:03:47;;;;;;;38.97;27.53;;;;;;;;;;5020516;28;20192;-79
2022/11/15 04:06:13;;;;;;;43.50;28.87;;;;;;;;;;5016286;28;20192;-87
2022/11/15 04:08:39;;;;;;;38.37;28.47;;;;;;;;;;5000378;28;20193;-87
2022/11/15 04:11:05;;;;;;;39.73;28.20;;;;;;;;;;5034159;28;20188;-87
2022/11/15 04:13:31;;;;;;;38.33;27.53;;;;;;;;;;5001296;28;20229;-87
2022/11/15 04:15:57;;;;;;;40.20;28.33;;;;;;;;;;5001135;28;20184;-87
2022/11/15 04:18:24;;;;;;;39.97;27.27;;;;;;;;;;5000978;28;20295;-87
2022/11/15 04:24:35;;;;;;;42.70;29.17;;;;;;;;;;5034570;28;20202;-80
2022/11/15 04:26:30;;;;;;;36.97;27.87;;;;;;;;;;5015294;28;20180;-80
2022/11/15 04:31:40;;;;;;;45.05;35.25;;;;;;;;;;5017664;28;20452;-79
2022/11/15 04:34:07;;;;;;;44.13;30.50;;;;;;;;;;5015855;28;20180;-79
2022/11/15 04:39:17;;;;;;;37.13;28.63;;;;;;;;;;5033533;28;20212;-79
2022/11/15 04:41:43;;;;;;;43.77;29.23;;;;;;;;;;5015080;28;20181;-79
2022/11/15 04:44:09;;;;;;;39.63;29.03;;;;;;;;;;5015800;28;20180;-79
2022/11/15 04:46:36;;;;;;;41.50;30.10;;;;;;;;;;5015834;28;20173;-79
2022/11/15 04:49:02;;;;;;;43.23;30.03;;;;;;;;;;5016539;28;20195;-80
2022/11/15 04:51:28;;;;;;;41.73;29.37;;;;;;;;;;4999859;28;20193;-80
2022/11/15 04:53:54;;;;;;;40.90;27.60;;;;;;;;;;5016351;28;20197;-80
2022/11/15 04:56:20;;;;;;;38.43;28.57;;;;;;;;;;5019317;28;20232;-87
2022/11/15 04:58:46;;;;;;;35.33;27.27;;;;;;;;;;5016461;28;20216;-88
2022/11/15 05:01:14;;;;;;;35.47;25.97;;;;;;;;;;5017024;28;20275;-88
2022/11/15 05:06:24;;;;;;;34.07;26.70;;;;;;;;;;5032800;28;20183;-88
2022/11/15 05:08:51;;;;;;;32.73;26.20;;;;;;;;;;5016516;28;20192;-88
2022/11/15 05:11:17;;;;;;;36.43;26.03;;;;;;;;;;5033355;28;20312;-80
2022/11/15 05:13:43;;;;;;;35.43;26.50;;;;;;;;;;4996813;28;20292;-80
2022/11/15 05:16:09;;;;;;;37.23;26.07;;;;;;;;;;5029923;28;20244;-80
2022/11/15 05:18:35;;;;;;;36.03;27.10;;;;;;;;;;5016165;28;20296;-80
2022/11/15 05:21:05;;;;;;;34.17;27.00;;;;;;;;;;5019686;28;20208;-88
2022/11/15 05:23:31;;;;;;;38.03;28.03;;;;;;;;;;5037781;28;20180;-88
2022/11/15 05:26:00;;;;;;;40.50;28.20;;;;;;;;;;5020083;28;20189;-88
2022/11/15 05:28:26;;;;;;;40.30;27.93;;;;;;;;;;5020119;28;20279;-81
2022/11/15 05:30:52;;;;;;;41.03;28.10;;;;;;;;;;5019643;28;20204;-81
2022/11/15 05:33:18;;;;;;;38.23;27.87;;;;;;;;;;5036821;28;20219;-80
2022/11/15 05:35:47;;;;;;;40.47;27.73;;;;;;;;;;5020050;28;20176;-80
2022/11/15 05:38:13;;;;;;;38.67;27.67;;;;;;;;;;5019996;28;20219;-81
2022/11/15 05:40:39;;;;;;;41.30;29.00;;;;;;;;;;5020494;28;20181;-81
2022/11/15 05:43:05;;;;;;;43.33;29.80;;;;;;;;;;5020100;28;20207;-80
2022/11/15 05:45:32;;;;;;;42.43;28.30;;;;;;;;;;5037287;28;20226;-80
2022/11/15 05:47:59;;;;;;;38.67;29.53;;;;;;;;;;5019707;28;20176;-80
2022/11/15 05:50:25;;;;;;;45.93;29.67;;;;;;;;;;5019144;28;20177;-88
2022/11/15 05:52:52;;;;;;;45.33;28.90;;;;;;;;;;5019606;28;20207;-87
2022/11/15 05:55:18;;;;;;;46.63;28.80;;;;;;;;;;5015801;28;20221;-88
2022/11/15 05:57:45;;;;;;;44.93;28.43;;;;;;;;;;5010621;28;20185;-88
2022/11/15 06:00:11;;;;;;;40.43;29.10;;;;;;;;;;5013142;28;20259;-88
2022/11/15 06:02:37;;;;;;;39.57;28.53;;;;;;;;;;5011349;28;20213;-80
2022/11/15 06:05:04;;;;;;;41.53;27.63;;;;;;;;;;5014405;28;20200;-88
2022/11/15 06:07:30;;;;;;;45.73;29.27;;;;;;;;;;5023077;28;20185;-88
2022/11/15 06:09:56;;;;;;;43.70;29.33;;;;;;;;;;5016705;28;20187;-87
2022/11/15 06:12:22;;;;;;;45.40;29.50;;;;;;;;;;5032317;28;20244;-88
2022/11/15 06:14:48;;;;;;;41.00;27.80;;;;;;;;;;5015872;28;20232;-88
2022/11/15 06:17:14;;;;;;;45.43;29.40;;;;;;;;;;4999345;28;20197;-87
2022/11/15 06:19:40;;;;;;;45.53;28.37;;;;;;;;;;5017297;28;20238;-80
2022/11/15 06:22:06;;;;;;;42.40;29.57;;;;;;;;;;5016210;28;20183;-80
2022/11/15 06:24:32;;;;;;;40.93;28.30;;;;;;;;;;5031911;28;20192;-80
2022/11/15 06:26:58;;;;;;;41.93;28.87;;;;;;;;;;5032078;28;20185;-80
2022/11/15 06:29:25;;;;;;;42.00;29.43;;;;;;;;;;5032136;28;20237;-80
2022/11/15 06:31:51;;;;;;;42.80;28.70;;;;;;;;;;4998862;28;20228;-80
2022/11/15 06:34:17;;;;;;;42.67;28.60;;;;;;;;;;4999745;28;20259;-80
2022/11/15 06:36:43;;;;;;;45.10;29.10;;;;;;;;;;5021000;28;20224;-87
2022/11/15 06:39:09;;;;;;;46.50;29.53;;;;;;;;;;5015252;28;20223;-78
2022/11/15 06:41:36;;;;;;;47.60;29.70;;;;;;;;;;5018123;28;20188;-78
2022/11/15 06:44:02;;;;;;;42.77;29.40;;;;;;;;;;5018893;28;20181;-78
2022/11/15 06:46:29;;;;;;;41.27;29.33;;;;;;;;;;5035522;28;20177;-78
2022/11/15 06:48:55;;;;;;;42.53;28.20;;;;;;;;;;5017835;28;20181;-77
2022/11/15 06:51:21;;;;;;;49.03;33.25;;;;;;;;;;5002380;28;20437;-77
2022/11/15 06:53:47;;;;;;;42.13;29.63;;;;;;;;;;5018327;28;20211;-78
2022/11/15 06:56:13;;;;;;;38.20;27.83;;;;;;;;;;5018119;28;20232;-78
2022/11/15 06:58:39;;;;;;;39.47;26.93;;;;;;;;;;5003870;28;20221;-80
2022/11/15 07:01:09;;;;;;;40.20;28.03;;;;;;;;;;5015671;28;20192;-78
2022/11/15 07:03:36;;;;;;;39.07;27.50;;;;;;;;;;5017053;28;20187;-78
2022/11/15 07:06:02;;;;;;;42.43;28.53;;;;;;;;;;5035137;28;20180;-78
2022/11/15 07:08:29;;;;;;;49.50;29.57;;;;;;;;;;5018436;28;20185;-81
2022/11/15 07:10:55;;;;;;;40.40;28.77;;;;;;;;;;5035893;28;20181;-81
2022/11/15 07:13:24;;;;;;;40.70;27.13;;;;;;;;;;5021327;28;20193;-81
2022/11/15 07:15:50;;;;;;;40.07;28.10;;;;;;;;;;5014725;28;20181;-81
2022/11/15 07:18:16;;;;;;;39.53;27.50;;;;;;;;;;5015461;28;20213;-81
2022/11/15 07:20:42;;;;;;;40.33;27.30;;;;;;;;;;4998278;28;20243;-81
2022/11/15 07:23:08;;;;;;;37.20;27.97;;;;;;;;;;5015592;28;20182;-81
2022/11/15 07:25:34;;;;;;;44.07;28.13;;;;;;;;;;5015554;28;20177;-87
2022/11/15 07:28:01;;;;;;;47.37;29.93;;;;;;;;;;4998376;28;20212;-87
2022/11/15 07:30:27;;;;;;;43.23;29.00;;;;;;;;;;5021768;28;20192;-87
2022/11/15 07:32:54;;;;;;;42.30;28.83;;;;;;;;;;5023243;28;20194;-86
2022/11/15 07:35:20;;;;;;;43.50;29.90;;;;;;;;;;5038695;28;20238;-87
2022/11/15 07:38:07;;;;;;;44.60;28.87;;;;;;;;;;5017902;28;20177;-81
2022/11/15 07:40:33;;;;;;;48.10;29.93;;;;;;;;;;5017169;28;20200;-87
2022/11/15 07:43:00;;;;;;;40.33;28.07;;;;;;;;;;5017146;28;20180;-87
2022/11/15 07:45:26;;;;;;;42.83;27.97;;;;;;;;;;5017458;28;20195;-88
2022/11/15 07:47:52;;;;;;;42.43;28.13;;;;;;;;;;5016281;28;20181;-87
2022/11/15 07:50:18;;;;;;;42.03;28.60;;;;;;;;;;5018551;28;20268;-88
2022/11/15 07:52:45;;;;;;;43.50;28.00;;;;;;;;;;5013955;28;20277;-88
2022/11/15 07:55:11;;;;;;;46.47;28.90;;;;;;;;;;4997523;28;20260;-88
2022/11/15 07:57:37;;;;;;;45.07;29.03;;;;;;;;;;5014023;28;20264;-87
2022/11/15 08:00:04;;;;;;;46.93;29.83;;;;;;;;;;4997504;28;20209;-77
2022/11/15 08:02:31;;;;;;;42.83;27.93;;;;;;;;;;5013780;28;20177;-77
2022/11/15 08:04:57;;;;;;;48.93;29.87;;;;;;;;;;5014820;28;20173;-77
2022/11/15 08:07:23;;;;;;;47.57;28.57;;;;;;;;;;5014797;28;20200;-78
2022/11/15 08:09:49;;;;;;;46.13;28.63;;;;;;;;;;4997388;28;20196;-78
2022/11/15 08:12:15;;;;;;;43.17;28.10;;;;;;;;;;4997566;28;20186;-78
2022/11/15 08:14:41;;;;;;;42.10;28.30;;;;;;;;;;4997697;28;20186;-88
2022/11/15 08:17:07;;;;;;;46.87;28.10;;;;;;;;;;5013545;28;20185;-87
2022/11/15 08:19:33;;;;;;;45.03;28.33;;;;;;;;;;4997088;28;20241;-87
2022/11/15 08:21:59;;;;;;;48.23;30.07;;;;;;;;;;4997187;28;20184;-88
2022/11/15 08:24:25;;;;;;;47.30;30.07;;;;;;;;;;4997337;28;20207;-88
2022/11/15 08:26:51;;;;;;;42.50;28.23;;;;;;;;;;5013471;28;20219;-88
2022/11/15 08:29:17;;;;;;;43.03;28.27;;;;;;;;;;4997414;28;20182;-88
2022/11/15 08:31:43;;;;;;;38.50;27.20;;;;;;;;;;4997404;28;20216;-82
2022/11/15 08:34:09;;;;;;;42.70;29.00;;;;;;;;;;5013498;28;20198;-81
2022/11/15 08:36:35;;;;;;;44.03;28.50;;;;;;;;;;5014661;28;20189;-81
2022/11/15 08:39:01;;;;;;;41.97;27.40;;;;;;;;;;5013114;28;20263;-81
2022/11/15 08:41:30;;;;;;;41.43;27.73;;;;;;;;;;5013144;28;20185;-81
2022/11/15 08:43:56;;;;;;;36.50;25.80;;;;;;;;;;5013255;28;20174;-88
2022/11/15 08:46:22;;;;;;;37.97;26.30;;;;;;;;;;4996933;28;20475;-88
2022/11/15 08:48:49;;;;;;;33.13;25.87;;;;;;;;;;4996844;28;20291;-80
2022/11/15 08:51:15;;;;;;;30.90;24.37;;;;;;;;;;5012979;28;20189;-80
2022/11/15 08:53:41;;;;;;;25.50;21.53;;;;;;;;;;4996785;28;20177;-80
2022/11/15 08:56:11;;;;;;;24.53;19.87;;;;;;;;;;5012749;28;20272;-80
2022/11/15 08:58:37;;;;;;;25.33;19.83;;;;;;;;;;5013268;28;20218;-80
2022/11/15 09:01:03;;;;;;;22.90;20.40;;;;;;;;;;5014146;28;20180;-80
2022/11/15 09:03:30;;;;;;;20.03;17.57;;;;;;;;;;5013891;28;20178;-80
2022/11/15 09:05:57;;;;;;;18.63;16.50;;;;;;;;;;5012942;28;20173;-80
2022/11/15 09:08:23;;;;;;;18.50;15.90;;;;;;;;;;5012942;28;20185;-88
2022/11/15 09:10:49;;;;;;;17.57;14.53;;;;;;;;;;4996668;28;20188;-88
2022/11/15 09:13:15;;;;;;;17.07;13.40;;;;;;;;;;4997627;28;20189;-88
2022/11/15 09:15:41;;;;;;;14.63;13.23;;;;;;;;;;5013141;28;20181;-88
2022/11/15 09:18:07;;;;;;;15.10;13.50;;;;;;;;;;4996849;28;20193;-88
2022/11/15 09:20:33;;;;;;;17.40;12.87;;;;;;;;;;4996595;28;20189;-78
2022/11/15 09:23:03;;;;;;;18.27;14.00;;;;;;;;;;5014293;28;20220;-81
2022/11/15 09:25:29;;;;;;;15.63;13.33;;;;;;;;;;5014339;28;20174;-81
2022/11/15 09:27:55;;;;;;;17.50;12.80;;;;;;;;;;5013132;28;20182;-81
2022/11/15 09:30:22;;;;;;;15.87;12.27;;;;;;;;;;5013162;28;20189;-81
2022/11/15 09:32:48;;;;;;;15.17;13.10;;;;;;;;;;4996851;28;20181;-81
2022/11/15 09:35:14;;;;;;;16.23;13.20;;;;;;;;;;5013061;28;20189;-81
2022/11/15 09:37:40;;;;;;;17.43;13.07;;;;;;;;;;4997321;28;20185;-81
2022/11/15 09:40:07;;;;;;;14.37;12.23;;;;;;;;;;5025240;28;20238;-78
2022/11/15 09:42:33;;;;;;;13.57;11.97;;;;;;;;;;5016156;28;20215;-78
2022/11/15 09:45:08;;;;;;;19.47;12.67;;;;;;;;;;5016308;28;20169;-78
2022/11/15 09:47:42;;;;;;;16.93;11.87;;;;;;;;;;5016408;28;20185;-79
2022/11/15 09:50:14;;;;;;;13.00;10.90;;;;;;;;;;5016242;28;20184;-78
2022/11/15 09:52:42;;;;;;;13.10;11.80;;;;;;;;;;5016127;28;20185;-78
2022/11/15 09:55:10;;;;;;;14.80;12.13;;;;;;;;;;5015959;28;20176;-78
2022/11/15 09:57:42;;;;;;;13.07;11.73;;;;;;;;;;5016158;28;20192;-78
2022/11/15 10:00:35;;;;;;;16.23;11.70;;;;;;;;;;5016115;28;20290;-78
2022/11/15 10:03:10;;;;;;;12.60;11.03;;;;;;;;;;5029419;28;20194;-78
2022/11/15 10:05:39;;;;;;;11.93;9.80;;;;;;;;;;5016133;28;20238;-77
2022/11/15 10:08:21;;;;;;;9.07;7.97;;;;;;;;;;5019226;28;20180;-78
2022/11/15 10:10:56;;;;;;;8.73;7.87;;;;;;;;;;5019462;28;20177;-78
2022/11/15 10:13:22;;;;;;;8.67;7.13;;;;;;;;;;5019326;28;20180;-78
2022/11/15 10:15:50;;;;;;;11.27;7.43;;;;;;;;;;5037057;28;20173;-78
2022/11/15 10:18:16;;;;;;;8.90;7.30;;;;;;;;;;5003375;28;20183;-82
2022/11/15 10:21:12;;;;;;;11.93;7.20;;;;;;;;;;5019722;28;20173;-81
2022/11/15 10:23:39;;;;;;;8.73;7.27;;;;;;;;;;5024209;28;20196;-82
2022/11/15 10:26:08;;;;;;;9.57;7.33;;;;;;;;;;5019159;28;20268;-81
2022/11/15 10:28:34;;;;;;;10.13;6.97;;;;;;;;;;5019210;28;20216;-81
2022/11/15 10:31:01;;;;;;;9.40;6.60;;;;;;;;;;5036720;28;20223;-81
2022/11/15 10:33:34;;;;;;;7.70;6.40;;;;;;;;;;5036655;28;20181;-82
2022/11/15 10:36:09;;;;;;;7.33;5.60;;;;;;;;;;5019291;28;20196;-81
2022/11/15 10:38:48;;;;;;;8.93;6.30;;;;;;;;;;5029342;28;20220;-82
2022/11/15 10:41:14;;;;;;;8.90;6.03;;;;;;;;;;4999307;28;20260;-81
2022/11/15 10:43:41;;;;;;;5.17;4.70;;;;;;;;;;4999537;28;20261;-82
2022/11/15 10:46:20;;;;;;;6.50;5.10;;;;;;;;;;4999522;28;20232;-81
2022/11/15 10:48:46;;;;;;;6.43;4.20;;;;;;;;;;5016531;28;20177;-81
2022/11/15 10:51:27;;;;;;;5.30;3.80;;;;;;;;;;4999180;28;20241;-81
2022/11/15 10:53:54;;;;;;;5.63;3.80;;;;;;;;;;5016525;28;20312;-82
2022/11/15 10:56:21;;;;;;;5.87;3.30;;;;;;;;;;4998770;28;20236;-81
2022/11/15 10:58:52;;;;;;;5.90;3.10;;;;;;;;;;4998822;28;20252;-82
2022/11/15 11:01:20;;;;;;;5.27;3.23;;;;;;;;;;4999137;28;20178;-78
2022/11/15 11:04:05;;;;;;;4.47;3.00;;;;;;;;;;4998878;28;20177;-78
2022/11/15 11:06:46;;;;;;;6.17;3.17;;;;;;;;;;4999064;28;20177;-78
2022/11/15 11:09:23;;;;;;;5.67;3.30;;;;;;;;;;4998676;28;20184;-78
2022/11/15 11:11:51;;;;;;;6.33;3.50;;;;;;;;;;5016145;28;20177;-78
2022/11/15 11:14:20;;;;;;;5.90;3.17;;;;;;;;;;4999156;28;20181;-78
2022/11/15 11:17:05;;;;;;;4.50;2.73;;;;;;;;;;4998944;28;20184;-78
2022/11/15 11:19:31;;;;;;;5.40;2.50;;;;;;;;;;4998379;28;20213;-82
2022/11/15 11:22:04;;;;;;;3.93;2.10;;;;;;;;;;4998508;28;20184;-82
2022/11/15 11:24:36;;;;;;;2.83;2.40;;;;;;;;;;4998975;28;20181;-82
2022/11/15 11:27:02;;;;;;;4.43;2.50;;;;;;;;;;5015920;28;20184;-82
2022/11/15 11:29:47;;;;;;;4.13;2.23;;;;;;;;;;4998479;28;20181;-82
2022/11/15 11:32:26;;;;;;;4.23;2.10;;;;;;;;;;4998342;28;20178;-81
2022/11/15 11:34:58;;;;;;;4.73;2.13;;;;;;;;;;4998205;28;20185;-78
2022/11/15 11:37:31;;;;;;;5.00;2.17;;;;;;;;;;4998551;28;20223;-78
2022/11/15 11:40:03;;;;;;;4.17;2.13;;;;;;;;;;4998157;28;20312;-78
2022/11/15 11:42:59;;;;;;;8.70;2.40;;;;;;;;;;4998105;28;20182;-78
2022/11/15 11:45:34;;;;;;;3.60;1.93;;;;;;;;;;4999176;28;20261;-78
2022/11/15 11:48:13;;;;;;;4.40;1.93;;;;;;;;;;4998001;28;20173;-76
2022/11/15 11:50:40;;;;;;;2.97;2.00;;;;;;;;;;5015459;28;20173;-77
2022/11/15 11:53:06;;;;;;;4.13;2.00;;;;;;;;;;4998436;28;20189;-79
2022/11/15 11:55:44;;;;;;;3.87;2.13;;;;;;;;;;5015192;28;20225;-79
2022/11/15 11:58:22;;;;;;;4.27;1.97;;;;;;;;;;4997163;28;20415;-81
2022/11/15 12:01:02;;;;;;;3.17;1.70;;;;;;;;;;5015666;28;20193;-81
2022/11/15 12:03:31;;;;;;;5.80;1.90;;;;;;;;;;5015348;28;20181;-81
2022/11/15 12:05:59;;;;;;;4.03;1.90;;;;;;;;;;5015211;28;20169;-82
2022/11/15 12:08:41;;;;;;;4.93;2.13;;;;;;;;;;4997560;28;20231;-88
2022/11/15 12:11:10;;;;;;;4.97;2.20;;;;;;;;;;4997988;28;20192;-89
2022/11/15 12:13:37;;;;;;;3.87;2.10;;;;;;;;;;4997829;28;20181;-85
2022/11/15 12:16:07;;;;;;;3.83;2.10;;;;;;;;;;4997751;28;20228;-86
2022/11/15 12:18:33;;;;;;;2.60;1.80;;;;;;;;;;4997265;28;20205;-86
2022/11/15 12:21:03;;;;;;;5.67;2.23;;;;;;;;;;4997756;28;20188;-86
2022/11/15 12:23:32;;;;;;;3.53;1.90;;;;;;;;;;4998590;28;20204;-86
2022/11/15 12:25:58;;;;;;;4.10;1.80;;;;;;;;;;5015086;28;20169;-76
2022/11/15 12:29:03;;;;;;;2.80;1.43;;;;;;;;;;5014535;28;20197;-76
2022/11/15 12:31:34;;;;;;;4.90;1.70;;;;;;;;;;4954426;29;20187;-76
2022/11/15 12:34:02;;;;;;;6.67;1.53;;;;;;;;;;4954342;29;20183;-75
2022/11/15 12:36:36;;;;;;;4.67;1.50;;;;;;;;;;4985626;28;20211;-78
2022/11/15 12:39:02;;;;;;;4.13;1.60;;;;;;;;;;5014571;28;20219;-78
2022/11/15 12:41:35;;;;;;;4.73;1.77;;;;;;;;;;5014776;28;20181;-89
2022/11/15 12:44:02;;;;;;;5.23;1.40;;;;;;;;;;4997144;28;20181;-89
2022/11/15 12:46:31;;;;;;;5.20;1.40;;;;;;;;;;4997310;28;20264;-87
2022/11/15 12:49:02;;;;;;;3.90;1.40;;;;;;;;;;5014839;28;20180;-87
2022/11/15 12:51:43;;;;;;;4.40;1.87;;;;;;;;;;5014691;28;20181;-86
2022/11/15 12:54:24;;;;;;;3.77;1.50;;;;;;;;;;5014541;28;20173;-86
2022/11/15 12:57:03;;;;;;;2.90;1.43;;;;;;;;;;5014482;28;20343;-87
2022/11/15 12:59:47;;;;;;;3.40;1.70;;;;;;;;;;5014609;28;20268;-79
2022/11/15 13:02:21;;;;;;;5.13;1.83;;;;;;;;;;5014447;28;20196;-79
2022/11/15 13:04:47;;;;;;;4.50;1.80;;;;;;;;;;5014624;28;20192;-79
2022/11/15 13:07:31;;;;;;;3.17;1.63;;;;;;;;;;5014450;28;20189;-79
2022/11/15 13:10:01;;;;;;;3.43;1.47;;;;;;;;;;4997195;28;20182;-79
2022/11/15 13:12:27;;;;;;;7.47;1.60;;;;;;;;;;4996936;28;20185;-79
2022/11/15 13:14:53;;;;;;;3.20;1.50;;;;;;;;;;5014578;28;20264;-81
2022/11/15 13:17:19;;;;;;;3.70;1.37;;;;;;;;;;4997309;28;20181;-80
2022/11/15 13:20:11;;;;;;;5.70;1.60;;;;;;;;;;5014194;28;20208;-80
2022/11/15 13:22:59;;;;;;;3.57;1.60;;;;;;;;;;5006592;28;20189;-80
2022/11/15 13:25:31;;;;;;;2.83;1.40;;;;;;;;;;5014513;28;20177;-78
2022/11/15 13:28:00;;;;;;;4.73;1.47;;;;;;;;;;4996823;28;20180;-78
2022/11/15 13:30:27;;;;;;;3.17;1.70;;;;;;;;;;4996853;28;20188;-78
2022/11/15 13:32:53;;;;;;;2.80;1.50;;;;;;;;;;4997052;28;20231;-76
2022/11/15 13:35:21;;;;;;;5.93;1.60;;;;;;;;;;5014227;28;20181;-76
2022/11/15 13:37:47;;;;;;;4.23;1.77;;;;;;;;;;4996626;28;20188;-76
2022/11/15 13:40:21;;;;;;;3.60;1.50;;;;;;;;;;5014649;28;20233;-76
2022/11/15 13:42:47;;;;;;;5.43;1.43;;;;;;;;;;5000731;28;20177;-76
2022/11/15 13:45:15;;;;;;;4.03;1.40;;;;;;;;;;5000340;28;20215;-76
2022/11/15 13:47:41;;;;;;;3.53;1.87;;;;;;;;;;5017849;28;20174;-76
2022/11/15 13:50:11;;;;;;;2.83;1.50;;;;;;;;;;5000275;28;20189;-79
2022/11/15 13:52:39;;;;;;;4.03;1.57;;;;;;;;;;5000684;28;20188;-79
2022/11/15 13:55:13;;;;;;;6.07;1.50;;;;;;;;;;5000659;28;20194;-79
2022/11/15 13:57:47;;;;;;;3.10;1.30;;;;;;;;;;5000066;28;20234;-82
2022/11/15 14:00:28;;;;;;;3.20;1.40;;;;;;;;;;5000548;28;20316;-81
2022/11/15 14:02:54;;;;;;;4.27;1.60;;;;;;;;;;5017643;28;20180;-81
2022/11/15 14:05:24;;;;;;;5.20;1.53;;;;;;;;;;4999958;28;20253;-78
2022/11/15 14:07:58;;;;;;;4.67;1.60;;;;;;;;;;5017325;28;20173;-79
2022/11/15 14:10:31;;;;;;;4.27;1.80;;;;;;;;;;5017330;28;20222;-79
2022/11/15 14:12:58;;;;;;;3.97;1.63;;;;;;;;;;5017423;28;20224;-79
2022/11/15 14:15:37;;;;;;;4.53;1.57;;;;;;;;;;5016210;28;20196;-79
2022/11/15 14:18:04;;;;;;;7.27;1.80;;;;;;;;;;5017061;28;20207;-79
2022/11/15 14:20:34;;;;;;;4.43;1.63;;;;;;;;;;5030941;28;20208;-79
2022/11/15 14:23:04;;;;;;;4.73;1.80;;;;;;;;;;5036888;28;20181;-78
2022/11/15 14:25:34;;;;;;;7.70;1.90;;;;;;;;;;5036675;28;20176;-78
2022/11/15 14:28:10;;;;;;;2.80;1.63;;;;;;;;;;5036614;28;20176;-78
2022/11/15 14:30:36;;;;;;;3.83;1.73;;;;;;;;;;5019051;28;20271;-78
2022/11/15 14:33:02;;;;;;;4.40;1.80;;;;;;;;;;5019059;28;20188;-78
2022/11/15 14:35:29;;;;;;;6.50;1.77;;;;;;;;;;5019078;28;20203;-78
2022/11/15 14:37:55;;;;;;;3.27;1.60;;;;;;;;;;5019275;28;20310;-86
2022/11/15 14:40:22;;;;;;;4.20;1.70;;;;;;;;;;5019354;28;20307;-87
2022/11/15 14:42:49;;;;;;;3.43;1.63;;;;;;;;;;5019260;28;20192;-87
2022/11/15 14:45:19;;;;;;;3.10;1.70;;;;;;;;;;5018686;28;20210;-87
2022/11/15 14:47:45;;;;;;;5.83;1.87;;;;;;;;;;5018512;28;20180;-87
2022/11/15 14:50:19;;;;;;;4.90;1.77;;;;;;;;;;5018436;28;20244;-86
2022/11/15 14:52:45;;;;;;;4.83;1.70;;;;;;;;;;5017727;28;20220;-86